AV - LB | Pilotos de la V.A




 METAR AND TAF INFORMATION
METAR FOR WIOO
ADDS - METARS form results

(0242 UTC 19 May 2021)
Data provider http://aviationweather.gov/metar/data/
 
METAR text: WIOO 190230Z 04003KT 9999 BKN009 26/25 Q1010 NOSIG
Conditions at: WIOO (PONTIANAK/SUPADI, ID) observed 0230 UTC 19 May 2021
Temperature: 26.0°C (79°F)
Dewpoint: 25.0°C (77°F) [RH = 94%]
Pressure (altimeter): 29.82 inches Hg (1010.0 mb)
Winds: from the NE (40 degrees) at 3 MPH (3 knots; 1.5 m/s)
Visibility: 6 or more miles (10+ km)
Ceiling: 900 feet AGL
Clouds: broken clouds at 900 feet AGL
Weather: no significant weather observed at this time

METAR text: WIOO 190200Z 05003KT 9000 BKN009 26/25 Q1010 NOSIG
Conditions at: WIOO (PONTIANAK/SUPADI, ID) observed 0200 UTC 19 May 2021
Temperature: 26.0°C (79°F)
Dewpoint: 25.0°C (77°F) [RH = 94%]
Pressure (altimeter): 29.82 inches Hg (1010.0 mb)
Winds: from the NE (50 degrees) at 3 MPH (3 knots; 1.5 m/s)
Visibility: 6 miles ( 9 km)
Ceiling: 900 feet AGL
Clouds: broken clouds at 900 feet AGL
Weather: no significant weather observed at this time

 AIRPORT MAP

 RUNWAY INFORMATION
Runway 15 Runway length 7380 ft Runway width 98 ft
Runway elevation 3 ft Runway displaced threshold 0 ft Runway heading 158
Runway 33 Runway length 7380 ft Runway width 98 ft
Runway elevation 10 ft Runway displaced threshold 0 ft Runway heading 338

 AIRPORT FREQUENCIES
Type APP Name PONTIANAK Frequency 119 MHZ
Type ATIS Name ATIS Frequency 127.4 MHZ
Type INFO Name PONTIAK IN Frequency 895.7 MHZ
Type TWR Name TWR Frequency 118.3 MHZ

 AIRPORT NEAR NAVIGATION AIDS
Type NDB Name Pontianak Frequency 245 KHZ
Type VOR-DME Name Pontianak Frequency 113200 KHZ